Time;durP1;ratioP1;P1;durP2;ratioP2;P2;SDS_P1;SDS_P2;PMS_P1;PMS_P2;Temp;Humidity;BMP_temperature;BMP_pressure;BME280_temperature;BME280_humidity;BME280_pressure;Samples;Min_cycle;Max_cycle;Signal;HPM_P1;HPM_P2
2022/04/10 00:01:24;;;;;;;6.03;4.22;;;;;;;7.64;51.00;101726.00;5093771;28;20037;-63
2022/04/10 00:03:52;;;;;;;8.60;4.50;;;;;;;7.64;51.10;101731.34;5095727;28;20047;-62
2022/04/10 00:06:18;;;;;;;8.60;3.97;;;;;;;7.63;51.06;101726.94;5083163;28;20517;-62
2022/04/10 00:08:45;;;;;;;8.85;4.63;;;;;;;7.62;51.05;101725.22;5079321;28;20055;-64
2022/04/10 00:11:12;;;;;;;9.70;5.00;;;;;;;7.61;51.07;101723.47;5094092;28;20437;-62
2022/04/10 00:13:38;;;;;;;9.43;4.60;;;;;;;7.57;51.00;101727.22;5087417;28;20036;-63
2022/04/10 00:16:05;;;;;;;6.65;4.28;;;;;;;7.53;51.10;101725.63;5045894;28;20398;-63
2022/04/10 00:18:32;;;;;;;7.38;4.22;;;;;;;7.50;51.24;101724.88;5091491;28;20036;-63
2022/04/10 00:20:59;;;;;;;9.98;4.60;;;;;;;7.44;50.94;101722.47;5095317;28;20109;-64
2022/04/10 00:23:25;;;;;;;8.27;4.70;;;;;;;7.40;51.25;101726.19;5076736;28;20042;-63
2022/04/10 00:25:52;;;;;;;8.88;4.43;;;;;;;7.36;51.20;101725.47;5093325;28;20040;-63
2022/04/10 00:28:19;;;;;;;11.57;4.90;;;;;;;7.31;51.27;101727.47;5070612;28;20054;-63
2022/04/10 00:30:46;;;;;;;8.68;4.80;;;;;;;7.26;51.25;101727.66;5094866;28;20447;-63
2022/04/10 00:33:12;;;;;;;8.30;4.82;;;;;;;7.21;51.12;101727.00;5076257;28;20028;-63
2022/04/10 00:35:39;;;;;;;7.55;4.40;;;;;;;7.18;51.24;101728.94;5075324;28;20477;-63
2022/04/10 00:38:07;;;;;;;6.90;4.72;;;;;;;7.15;51.19;101724.59;5076165;28;20451;-63
2022/04/10 00:40:34;;;;;;;8.27;4.65;;;;;;;7.13;51.42;101718.44;5076767;28;20048;-63
2022/04/10 00:43:01;;;;;;;8.25;4.82;;;;;;;7.09;51.43;101719.50;5076270;28;20516;-64
2022/04/10 00:45:27;;;;;;;10.60;5.07;;;;;;;7.06;51.17;101718.78;5059798;28;20047;-64
2022/04/10 00:47:54;;;;;;;9.85;4.35;;;;;;;7.03;51.32;101718.91;5093723;28;20040;-63
2022/04/10 00:50:21;;;;;;;10.75;4.30;;;;;;;6.99;51.41;101720.84;5093657;28;20067;-63
2022/04/10 00:52:49;;;;;;;10.20;4.78;;;;;;;6.97;51.59;101718.22;5093982;28;20521;-63
2022/04/10 00:55:17;;;;;;;7.13;4.90;;;;;;;6.98;51.47;101724.44;5094489;28;20036;-64
2022/04/10 00:57:47;;;;;;;10.20;5.38;;;;;;;6.97;51.70;101725.38;5076248;28;20044;-63
2022/04/10 01:00:15;;;;;;;9.23;4.93;;;;;;;6.96;51.45;101718.28;5099307;28;20044;-63
2022/04/10 01:02:42;;;;;;;8.45;5.25;;;;;;;6.94;51.61;101715.69;5075997;28;20067;-63
2022/04/10 01:05:10;;;;;;;8.40;4.55;;;;;;;6.92;51.61;101714.88;5073435;28;20046;-63
2022/04/10 01:07:37;;;;;;;7.22;4.90;;;;;;;6.90;51.54;101716.75;5092218;28;20032;-63
2022/04/10 01:10:07;;;;;;;8.38;4.50;;;;;;;6.88;51.75;101717.75;5069344;28;20128;-63
2022/04/10 01:12:34;;;;;;;11.18;5.15;;;;;;;6.87;51.57;101721.34;5075543;28;20058;-63
2022/04/10 01:15:09;;;;;;;9.52;5.00;;;;;;;6.85;51.57;101718.75;5071460;28;20051;-63
2022/04/10 01:17:39;;;;;;;8.40;5.03;;;;;;;6.84;51.69;101717.00;5071036;28;20044;-62
2022/04/10 01:20:09;;;;;;;8.45;4.97;;;;;;;6.80;51.65;101712.72;5072796;28;20063;-63
2022/04/10 01:22:40;;;;;;;10.57;5.30;;;;;;;6.81;51.77;101714.47;5072541;28;20044;-63
2022/04/10 01:25:10;;;;;;;7.72;4.60;;;;;;;6.78;51.71;101711.06;5072182;28;20044;-63
2022/04/10 01:27:41;;;;;;;9.45;4.65;;;;;;;6.76;51.61;101713.78;5069598;28;20043;-63
2022/04/10 01:30:10;;;;;;;11.85;4.85;;;;;;;6.75;51.79;101720.06;5069449;28;20145;-63
2022/04/10 01:32:38;;;;;;;8.18;4.60;;;;;;;6.74;52.05;101715.66;5073729;28;20036;-63
2022/04/10 01:35:06;;;;;;;8.93;5.15;;;;;;;6.73;51.96;101723.72;5076146;28;20046;-64
2022/04/10 01:37:36;;;;;;;9.70;5.25;;;;;;;6.69;52.01;101715.84;5072014;28;20123;-62
2022/04/10 01:40:05;;;;;;;7.45;4.93;;;;;;;6.66;51.93;101717.72;5072384;28;20465;-64
2022/04/10 01:42:33;;;;;;;7.00;5.05;;;;;;;6.63;52.00;101720.53;5072342;28;20047;-66
2022/04/10 01:45:00;;;;;;;16.05;6.28;;;;;;;6.60;52.09;101716.19;5056943;28;20046;-63
2022/04/10 01:47:28;;;;;;;11.50;5.90;;;;;;;6.60;52.15;101720.66;5068616;28;20076;-64
2022/04/10 01:49:55;;;;;;;14.02;5.60;;;;;;;6.59;52.27;101714.44;5086326;28;20055;-62
2022/04/10 01:52:21;;;;;;;10.48;5.40;;;;;;;6.61;52.36;101719.72;5061389;28;20157;-63
2022/04/10 01:54:49;;;;;;;8.57;5.32;;;;;;;6.61;52.15;101717.94;5075782;28;20040;-63
2022/04/10 01:57:16;;;;;;;8.93;5.13;;;;;;;6.63;52.43;101725.88;5072499;28;20040;-63
2022/04/10 01:59:42;;;;;;;9.82;5.50;;;;;;;6.63;52.29;101733.88;5074270;28;20097;-63
2022/04/10 02:02:09;;;;;;;13.88;5.40;;;;;;;6.64;52.25;101725.81;5075446;28;20071;-63
2022/04/10 02:04:36;;;;;;;9.85;4.60;;;;;;;6.64;52.29;101732.94;5075256;28;20048;-64
2022/04/10 02:07:03;;;;;;;8.38;4.90;;;;;;;6.63;52.33;101728.53;5073493;28;20036;-63
2022/04/10 02:09:30;;;;;;;12.05;5.00;;;;;;;6.63;52.37;101731.19;5057401;28;20044;-63
2022/04/10 02:11:57;;;;;;;7.57;4.82;;;;;;;6.63;52.23;101737.41;5070088;28;20048;-63
2022/04/10 02:14:24;;;;;;;11.15;5.80;;;;;;;6.62;52.23;101738.34;5055377;28;20139;-64
2022/04/10 02:16:52;;;;;;;9.32;5.70;;;;;;;6.64;52.27;101735.63;5083585;28;20401;-63
2022/04/10 02:19:20;;;;;;;10.98;5.65;;;;;;;6.64;52.44;101740.94;5074052;28;20036;-63
2022/04/10 02:21:46;;;;;;;10.05;5.38;;;;;;;6.64;52.27;101746.28;5074542;28;20048;-63
2022/04/10 02:24:13;;;;;;;9.85;5.63;;;;;;;6.63;52.50;101744.56;5072910;28;20045;-63
2022/04/10 02:26:40;;;;;;;9.32;6.00;;;;;;;6.62;52.52;101748.16;5081665;28;20048;-63
2022/04/10 02:29:06;;;;;;;13.57;5.70;;;;;;;6.63;52.35;101749.88;5092710;28;20484;-63
2022/04/10 02:31:34;;;;;;;10.25;4.53;;;;;;;6.59;52.66;101741.13;5074323;28;20055;-63
2022/04/10 02:34:02;;;;;;;9.57;5.93;;;;;;;6.56;52.24;101751.06;5058649;28;20401;-63
2022/04/10 02:36:28;;;;;;;11.88;5.20;;;;;;;6.53;52.53;101749.38;5074222;28;20044;-63
2022/04/10 02:38:55;;;;;;;10.32;5.07;;;;;;;6.52;52.31;101749.44;5056054;28;20037;-63
2022/04/10 02:41:22;;;;;;;9.43;5.45;;;;;;;6.49;52.22;101755.78;5065611;28;20040;-64
2022/04/10 02:43:52;;;;;;;7.93;5.22;;;;;;;6.47;52.41;101752.31;5057919;28;20043;-62
2022/04/10 02:46:18;;;;;;;8.38;4.97;;;;;;;6.45;52.30;101750.63;5074899;28;20043;-64
2022/04/10 02:48:45;;;;;;;11.73;5.57;;;;;;;6.43;52.35;101758.69;5074364;28;20032;-63
2022/04/10 02:51:16;;;;;;;7.70;5.43;;;;;;;6.42;52.37;101756.09;5074865;28;20123;-64
2022/04/10 02:53:43;;;;;;;9.63;5.60;;;;;;;6.39;52.31;101759.75;5092512;28;20028;-62
2022/04/10 02:56:10;;;;;;;10.57;6.82;;;;;;;6.38;52.41;101760.66;5073531;28;20443;-63
2022/04/10 02:58:36;;;;;;;11.23;5.68;;;;;;;6.35;52.36;101755.44;5074269;28;20493;-63
2022/04/10 03:01:04;;;;;;;11.20;6.35;;;;;;;6.34;52.46;101759.91;5075006;28;20044;-63
2022/04/10 03:03:33;;;;;;;8.85;5.03;;;;;;;6.32;52.38;101758.25;5073938;28;20048;-63
2022/04/10 03:06:00;;;;;;;8.70;5.65;;;;;;;6.28;52.35;101767.28;5070858;28;20032;-63
2022/04/10 03:08:27;;;;;;;13.88;5.80;;;;;;;6.23;52.32;101761.25;5054475;28;20402;-63
2022/04/10 03:10:53;;;;;;;8.07;4.90;;;;;;;6.21;52.40;101769.31;5072695;28;20041;-63
2022/04/10 03:13:21;;;;;;;11.70;6.03;;;;;;;6.20;52.44;101766.72;5054671;28;20067;-63
2022/04/10 03:15:52;;;;;;;12.45;5.63;;;;;;;6.18;52.55;101764.09;5073580;28;20485;-63
2022/04/10 03:18:20;;;;;;;10.27;5.97;;;;;;;6.16;52.42;101776.63;5056196;28;20048;-63
2022/04/10 03:20:47;;;;;;;7.88;5.53;;;;;;;6.15;52.52;101774.03;5089219;28;20078;-63
2022/04/10 03:23:14;;;;;;;9.73;5.35;;;;;;;6.15;52.61;101777.56;5073263;28;20044;-63
2022/04/10 03:25:40;;;;;;;12.07;5.70;;;;;;;6.13;52.77;101776.75;5094168;28;20079;-64
2022/04/10 03:28:08;;;;;;;8.82;6.03;;;;;;;6.14;52.66;101778.50;5068477;28;20059;-63
2022/04/10 03:30:35;;;;;;;9.15;5.40;;;;;;;6.14;52.64;101778.50;5087831;28;20493;-64
2022/04/10 03:33:02;;;;;;;8.55;6.03;;;;;;;6.14;52.77;101794.50;5065350;28;20040;-63
2022/04/10 03:35:29;;;;;;;8.77;5.50;;;;;;;6.12;52.71;101777.69;5076025;28;20040;-63
2022/04/10 03:37:57;;;;;;;10.80;5.93;;;;;;;6.11;52.67;101786.59;5063786;28;20097;-64
2022/04/10 03:40:24;;;;;;;10.75;6.20;;;;;;;6.11;52.95;101773.28;5077708;28;20044;-63
2022/04/10 03:42:52;;;;;;;9.60;6.15;;;;;;;6.10;52.67;101778.66;5077044;28;20101;-63
2022/04/10 03:45:19;;;;;;;9.00;5.43;;;;;;;6.08;52.76;101773.38;5078214;28;20051;-63
2022/04/10 03:47:47;;;;;;;7.93;5.78;;;;;;;6.03;52.76;101776.22;5077630;28;20043;-63
2022/04/10 03:50:20;;;;;;;15.23;6.30;;;;;;;6.01;52.54;101778.09;5076182;28;20075;-63
2022/04/10 03:52:47;;;;;;;13.40;6.22;;;;;;;5.99;52.95;101776.41;5077784;28;20032;-63
2022/04/10 03:55:14;;;;;;;10.25;5.95;;;;;;;5.98;52.74;101782.66;5077038;28;20105;-64
2022/04/10 03:57:41;;;;;;;14.88;6.60;;;;;;;5.96;52.82;101790.72;5084328;28;20553;-63
2022/04/10 04:00:08;;;;;;;8.30;6.05;;;;;;;5.97;52.84;101783.59;5074187;28;20115;-63
2022/04/10 04:02:44;;;;;;;8.18;6.82;;;;;;;5.98;52.94;101785.31;5075856;28;20045;-64
2022/04/10 04:05:19;;;;;;;9.88;7.75;;;;;;;6.01;53.03;101790.53;5057648;28;20049;-63
2022/04/10 04:07:47;;;;;;;11.05;6.88;;;;;;;6.02;52.93;101794.94;5072893;28;20071;-63
2022/04/10 04:10:13;;;;;;;11.50;7.30;;;;;;;6.02;53.16;101793.16;5076221;28;20404;-63
2022/04/10 04:12:40;;;;;;;13.13;7.93;;;;;;;6.06;53.02;101796.56;5068313;28;20036;-63
2022/04/10 04:15:08;;;;;;;13.57;7.18;;;;;;;6.07;53.27;101795.66;5041087;28;20136;-62
2022/04/10 04:17:34;;;;;;;10.27;6.97;;;;;;;6.07;53.21;101802.78;5060305;28;20477;-63
2022/04/10 04:20:03;;;;;;;10.18;7.68;;;;;;;6.08;53.00;101800.06;5076825;28;20071;-63
2022/04/10 04:22:33;;;;;;;10.30;7.43;;;;;;;6.10;53.12;101795.53;5076873;28;20041;-63
2022/04/10 04:25:02;;;;;;;13.13;7.72;;;;;;;6.11;53.09;101797.28;5075909;28;20050;-63
2022/04/10 04:27:29;;;;;;;12.20;7.15;;;;;;;6.12;53.28;101806.16;5076176;28;20079;-63
2022/04/10 04:29:56;;;;;;;12.52;7.72;;;;;;;6.12;53.20;101811.47;5076693;28;20040;-63
2022/04/10 04:32:23;;;;;;;11.93;7.60;;;;;;;6.12;53.18;101804.34;5076421;28;20040;-64
2022/04/10 04:34:50;;;;;;;16.17;8.10;;;;;;;6.13;53.16;101807.88;5075909;28;20131;-64
2022/04/10 04:37:17;;;;;;;12.13;7.43;;;;;;;6.13;53.15;101814.09;5071892;28;20037;-63
2022/04/10 04:39:44;;;;;;;12.75;8.48;;;;;;;6.13;53.04;101803.41;5083268;28;20122;-63
2022/04/10 04:42:10;;;;;;;12.35;8.55;;;;;;;6.15;53.04;101822.03;5075729;28;20044;-63
2022/04/10 04:44:37;;;;;;;16.73;8.85;;;;;;;6.14;53.32;101826.50;5076133;28;20130;-63
2022/04/10 04:47:05;;;;;;;10.82;8.20;;;;;;;6.14;52.99;101823.81;5076885;28;20043;-63
2022/04/10 04:49:32;;;;;;;13.40;8.10;;;;;;;6.15;53.15;101822.03;5074907;28;20135;-64
2022/04/10 04:52:00;;;;;;;11.07;8.70;;;;;;;6.14;53.15;101820.28;5093289;28;20048;-63
2022/04/10 04:54:27;;;;;;;10.13;7.90;;;;;;;6.15;53.30;101824.69;5076751;28;20044;-63
2022/04/10 04:56:54;;;;;;;13.18;8.63;;;;;;;6.16;53.23;101821.97;5090109;28;20040;-63
2022/04/10 04:59:23;;;;;;;14.00;8.25;;;;;;;6.16;53.35;101816.63;5077405;28;20041;-63
2022/04/10 05:01:51;;;;;;;14.98;9.13;;;;;;;6.19;53.38;101819.19;5067792;28;20044;-65
2022/04/10 05:04:20;;;;;;;12.52;9.35;;;;;;;6.19;53.35;101826.31;5076402;28;20127;-63
2022/04/10 05:06:47;;;;;;;11.55;8.85;;;;;;;6.18;53.37;101827.25;5075164;28;20036;-64
2022/04/10 05:09:15;;;;;;;12.25;8.60;;;;;;;6.17;53.30;101822.84;5075352;28;20074;-63
2022/04/10 05:11:42;;;;;;;10.40;8.38;;;;;;;6.16;53.25;101835.31;5074220;28;20131;-63
2022/04/10 05:14:09;;;;;;;13.18;8.75;;;;;;;6.15;53.47;101828.22;5076135;28;20047;-63
2022/04/10 05:16:36;;;;;;;14.30;8.43;;;;;;;6.15;53.46;101836.25;5076208;28;20055;-64
2022/04/10 05:19:04;;;;;;;15.63;9.18;;;;;;;6.14;53.29;101847.84;5076158;28;20135;-63
2022/04/10 05:21:31;;;;;;;11.18;8.75;;;;;;;6.15;53.35;101838.03;5075549;28;20059;-64
2022/04/10 05:23:59;;;;;;;13.55;8.38;;;;;;;6.14;53.40;101837.16;5072218;28;20048;-64
2022/04/10 05:26:29;;;;;;;11.80;8.88;;;;;;;6.15;53.32;101843.38;5074545;28;20040;-63
2022/04/10 05:28:59;;;;;;;13.05;9.15;;;;;;;6.16;53.43;101845.97;5060340;28;20044;-63
2022/04/10 05:31:28;;;;;;;12.75;9.15;;;;;;;6.16;53.49;101839.78;5075363;28;20493;-63
2022/04/10 05:33:56;;;;;;;12.65;8.43;;;;;;;6.15;53.40;101854.91;5059395;28;20071;-63
2022/04/10 05:36:23;;;;;;;15.23;9.18;;;;;;;6.14;53.63;101857.63;5075563;28;20040;-64
2022/04/10 05:38:51;;;;;;;18.10;9.75;;;;;;;6.13;53.48;101856.75;5093499;28;20051;-63
2022/04/10 05:41:21;;;;;;;14.20;9.05;;;;;;;6.16;53.54;101866.44;5052696;28;20057;-63
2022/04/10 05:43:52;;;;;;;12.23;9.60;;;;;;;6.18;53.76;101857.47;5066771;28;20040;-64
2022/04/10 05:46:20;;;;;;;14.73;9.43;;;;;;;6.21;53.86;101872.47;5055615;28;20031;-64
2022/04/10 05:48:53;;;;;;;18.08;10.00;;;;;;;6.21;53.77;101875.16;5062270;28;20040;-63
2022/04/10 05:51:22;;;;;;;14.90;9.70;;;;;;;6.20;53.71;101876.94;5065385;28;20504;-63
2022/04/10 05:53:49;;;;;;;13.57;9.63;;;;;;;6.20;53.83;101879.63;5076593;28;20036;-63
2022/04/10 05:56:16;;;;;;;12.13;9.88;;;;;;;6.21;53.94;101889.34;5074444;28;20051;-64
2022/04/10 05:58:48;;;;;;;12.68;9.50;;;;;;;6.23;53.90;101890.16;5088698;28;20036;-63
2022/04/10 06:01:16;;;;;;;12.38;9.55;;;;;;;6.25;54.19;101893.66;5071015;28;20063;-64
2022/04/10 06:03:44;;;;;;;16.70;9.95;;;;;;;6.26;54.06;101895.38;5073237;28;20581;-63
2022/04/10 06:06:13;;;;;;;12.60;9.82;;;;;;;6.26;54.04;101905.19;5093159;28;20051;-62
2022/04/10 06:08:45;;;;;;;14.25;10.25;;;;;;;6.27;54.22;101906.94;5088397;28;20047;-64
2022/04/10 06:11:12;;;;;;;14.77;10.55;;;;;;;6.27;54.22;101906.94;5090384;28;20048;-64
2022/04/10 06:13:41;;;;;;;15.18;11.15;;;;;;;6.30;54.26;101905.03;5058687;28;20047;-63
2022/04/10 06:16:12;;;;;;;21.98;10.73;;;;;;;6.32;54.35;101891.63;5093246;28;20698;-63
2022/04/10 06:18:42;;;;;;;15.15;10.68;;;;;;;6.35;54.42;101908.41;5068099;28;20035;-64
2022/04/10 06:21:09;;;;;;;15.43;10.13;;;;;;;6.40;54.60;101918.03;5062753;28;20044;-64
2022/04/10 06:23:36;;;;;;;13.15;9.63;;;;;;;6.45;54.62;101913.38;5071556;28;20076;-64
2022/04/10 06:26:09;;;;;;;11.95;9.73;;;;;;;6.52;54.70;101912.22;5055215;28;20202;-64
2022/04/10 06:28:35;;;;;;;14.70;9.70;;;;;;;6.58;54.83;101914.69;5091537;28;20050;-63
2022/04/10 06:31:06;;;;;;;11.40;9.15;;;;;;;6.66;54.88;101912.59;5075322;28;20067;-63
2022/04/10 06:33:35;;;;;;;12.90;9.20;;;;;;;6.74;55.08;101923.88;5094097;28;20451;-64
2022/04/10 06:36:03;;;;;;;16.83;9.63;;;;;;;6.83;55.15;101923.53;5058366;28;20139;-64
2022/04/10 06:38:30;;;;;;;13.30;9.20;;;;;;;6.94;55.15;101923.13;5074255;28;20048;-63
2022/04/10 06:41:08;;;;;;;14.00;8.85;;;;;;;7.09;55.30;101927.84;5073440;28;20047;-63
2022/04/10 06:43:34;;;;;;;11.50;8.70;;;;;;;7.24;55.59;101931.72;5074907;28;20067;-64
2022/04/10 06:46:11;;;;;;;11.57;9.05;;;;;;;7.44;55.63;101934.50;5060011;28;20068;-64
2022/04/10 06:49:01;;;;;;;11.35;7.70;;;;;;;7.66;55.78;101931.81;5082053;28;20055;-64
2022/04/10 06:51:29;;;;;;;17.27;8.32;;;;;;;7.89;55.81;101930.81;5074502;28;20036;-64
2022/04/10 06:53:59;;;;;;;10.13;8.13;;;;;;;8.10;55.75;101935.25;5075922;28;20044;-64
2022/04/10 06:56:26;;;;;;;15.00;8.52;;;;;;;8.36;55.86;101939.53;5090068;28;20039;-64
2022/04/10 06:58:53;;;;;;;8.77;7.15;;;;;;;8.59;55.97;101939.34;5092895;28;20432;-66
2022/04/10 07:01:20;;;;;;;12.43;8.00;;;;;;;8.85;56.00;101934.59;5077599;28;20048;-65
2022/04/10 07:03:48;;;;;;;11.40;7.85;;;;;;;9.11;55.89;101936.09;5077724;28;20044;-64
2022/04/10 07:06:20;;;;;;;13.13;7.63;;;;;;;9.38;55.91;101936.56;5062367;28;20040;-64
2022/04/10 07:08:47;;;;;;;11.10;7.72;;;;;;;9.62;55.68;101939.84;5078664;28;20122;-65
2022/04/10 07:11:17;;;;;;;10.35;6.53;;;;;;;9.84;55.77;101945.91;5078481;28;20043;-64
2022/04/10 07:13:44;;;;;;;10.48;6.85;;;;;;;10.07;55.57;101952.78;5060195;28;20494;-64
2022/04/10 07:16:12;;;;;;;14.93;7.63;;;;;;;10.29;55.42;101948.09;5083526;28;20452;-64
2022/04/10 07:18:40;;;;;;;9.20;6.40;;;;;;;10.53;55.31;101948.63;5078708;28;20476;-64
2022/04/10 07:21:12;;;;;;;11.73;6.22;;;;;;;10.77;55.20;101960.75;5096020;28;20093;-65
2022/04/10 07:23:46;;;;;;;8.35;6.35;;;;;;;10.98;54.95;101958.69;5078252;28;20131;-65
2022/04/10 07:26:29;;;;;;;10.50;6.38;;;;;;;11.24;54.98;101959.09;5077402;28;20040;-64
2022/04/10 07:29:01;;;;;;;11.27;6.47;;;;;;;11.42;54.81;101955.38;5076139;28;20085;-68
2022/04/10 07:31:28;;;;;;;12.30;6.18;;;;;;;11.59;54.63;101951.72;5076860;28;20493;-68
2022/04/10 07:33:54;;;;;;;9.60;5.18;;;;;;;11.69;54.28;101953.78;5077025;28;20084;-68
2022/04/10 07:36:41;;;;;;;9.23;4.85;;;;;;;11.83;54.00;101962.91;5081788;28;20063;-67
2022/04/10 07:39:08;;;;;;;11.30;4.63;;;;;;;11.99;54.07;101961.09;5061390;28;20174;-68
2022/04/10 07:41:39;;;;;;;9.05;3.97;;;;;;;12.14;53.64;101964.69;5077173;28;20147;-68
2022/04/10 07:44:17;;;;;;;9.18;4.15;;;;;;;12.26;53.25;101966.63;5077344;28;20043;-68
2022/04/10 07:49:29;;;;;;;7.82;3.53;;;;;;;12.44;52.61;101975.44;5077550;28;20044;-67
2022/04/10 07:52:13;;;;;;;5.82;3.30;;;;;;;12.53;52.26;101983.81;5077773;28;20032;-67
2022/04/10 07:54:46;;;;;;;8.18;3.40;;;;;;;12.60;52.14;101987.88;5078012;28;20066;-67
2022/04/10 07:57:16;;;;;;;6.38;3.10;;;;;;;12.68;51.97;101991.00;5078208;28;20044;-65
2022/04/10 07:59:47;;;;;;;5.25;3.13;;;;;;;12.81;52.06;101992.94;5077198;28;20037;-66
2022/04/10 08:02:22;;;;;;;7.00;3.10;;;;;;;12.90;51.51;101987.81;5077552;28;20138;-65
2022/04/10 08:04:49;;;;;;;7.78;3.15;;;;;;;12.99;51.29;101997.16;5077585;28;20044;-66
2022/04/10 08:07:29;;;;;;;11.63;3.90;;;;;;;13.05;51.02;102005.75;5077406;28;20141;-66
2022/04/10 08:09:56;;;;;;;7.75;3.13;;;;;;;12.97;50.59;102012.56;5095996;28;20044;-66
2022/04/10 08:12:23;;;;;;;5.47;2.58;;;;;;;12.82;50.19;102018.94;5095440;28;20044;-65
2022/04/10 08:14:49;;;;;;;7.53;2.67;;;;;;;12.61;49.96;102027.34;5095816;28;20040;-66
2022/04/10 08:17:19;;;;;;;6.45;2.55;;;;;;;12.47;49.94;102030.00;5095207;28;20039;-66
2022/04/10 08:19:45;;;;;;;7.40;2.75;;;;;;;12.33;49.97;102022.75;5095771;28;20131;-65
2022/04/10 08:22:12;;;;;;;5.90;2.20;;;;;;;12.20;49.77;102024.44;5095032;28;20043;-65
2022/04/10 08:24:38;;;;;;;6.53;2.28;;;;;;;12.09;49.87;102025.06;5095439;28;20052;-65
2022/04/10 08:27:05;;;;;;;6.85;2.20;;;;;;;12.00;49.78;102035.50;5095770;28;20047;-66
2022/04/10 08:29:32;;;;;;;6.88;2.58;;;;;;;11.94;50.02;102030.47;5095099;28;20051;-65
2022/04/10 08:31:58;;;;;;;7.93;2.65;;;;;;;11.91;49.75;102042.28;5060340;28;20048;-65
2022/04/10 08:34:25;;;;;;;6.38;2.55;;;;;;;11.91;50.19;102036.91;5094795;28;20047;-66
2022/04/10 08:36:51;;;;;;;5.95;1.58;;;;;;;11.92;49.99;102038.66;5095009;28;20040;-66
2022/04/10 08:39:18;;;;;;;4.40;1.80;;;;;;;11.92;49.62;102038.66;5095069;28;20068;-65
2022/04/10 08:41:46;;;;;;;8.82;2.13;;;;;;;11.97;49.80;102038.38;5095110;28;20040;-65
2022/04/10 08:44:14;;;;;;;6.30;1.98;;;;;;;12.05;50.04;102033.41;5094889;28;20036;-65
2022/04/10 08:46:41;;;;;;;7.78;2.42;;;;;;;12.13;49.71;102041.03;5076893;28;20072;-66
2022/04/10 08:49:08;;;;;;;8.00;2.30;;;;;;;12.25;49.73;102051.09;5094089;28;20044;-66
2022/04/10 08:51:35;;;;;;;6.80;2.28;;;;;;;12.41;49.84;102038.44;5094672;28;20048;-65
2022/04/10 08:54:02;;;;;;;8.27;2.10;;;;;;;12.60;49.78;102047.16;5094866;28;20478;-65
2022/04/10 08:56:29;;;;;;;5.97;2.42;;;;;;;12.80;49.65;102040.59;5076891;28;20040;-66
2022/04/10 08:58:55;;;;;;;4.53;1.98;;;;;;;12.97;49.50;102035.00;5094561;28;20468;-65
2022/04/10 09:01:22;;;;;;;3.80;1.40;;;;;;;13.11;49.05;102039.53;5094513;28;20049;-65
2022/04/10 09:03:49;;;;;;;3.03;1.50;;;;;;;13.26;48.89;102044.00;5076400;28;20052;-65
2022/04/10 09:06:16;;;;;;;4.30;2.00;;;;;;;13.38;48.18;102045.09;5094548;28;20070;-65
2022/04/10 09:08:44;;;;;;;6.35;1.90;;;;;;;13.49;48.13;102041.69;5094455;28;20059;-66
2022/04/10 09:11:11;;;;;;;6.20;1.80;;;;;;;13.54;47.83;102044.97;5094475;28;20131;-65
2022/04/10 09:13:41;;;;;;;2.70;1.42;;;;;;;13.67;47.83;102051.31;5094607;28;20502;-66
2022/04/10 09:16:13;;;;;;;5.28;1.48;;;;;;;13.86;47.65;102048.28;5094418;28;20139;-64
2022/04/10 09:18:50;;;;;;;4.93;1.90;;;;;;;13.95;46.99;102055.75;5094244;28;20109;-65
2022/04/10 09:21:20;;;;;;;3.15;1.42;;;;;;;14.00;46.89;102051.78;5094212;28;20043;-66
2022/04/10 09:24:01;;;;;;;4.47;2.13;;;;;;;13.98;46.13;102051.03;5075343;28;20051;-66
2022/04/10 09:26:43;;;;;;;7.15;2.10;;;;;;;13.99;46.03;102046.50;5094268;28;20457;-65
2022/04/10 09:29:10;;;;;;;2.92;1.50;;;;;;;14.02;46.10;102040.88;5094013;28;20048;-65
2022/04/10 09:31:37;;;;;;;7.28;1.92;;;;;;;14.05;46.35;102043.38;5094369;28;20048;-65
2022/04/10 09:34:09;;;;;;;5.60;2.10;;;;;;;14.03;46.04;102050.72;5076264;28;20043;-65
2022/04/10 09:36:38;;;;;;;4.38;1.90;;;;;;;14.01;45.78;102049.97;5094093;28;20075;-65
2022/04/10 09:39:29;;;;;;;5.80;2.28;;;;;;;14.03;45.78;102052.56;5093512;28;20050;-66
2022/04/10 09:42:14;;;;;;;6.75;1.98;;;;;;;14.09;45.74;102046.75;5094143;28;20044;-64
2022/04/10 09:45:01;;;;;;;6.57;1.38;;;;;;;14.23;46.15;102042.19;5075653;28;20048;-66
2022/04/10 09:47:27;;;;;;;3.28;1.50;;;;;;;14.28;45.79;102045.44;5093722;28;20504;-66
2022/04/10 09:50:04;;;;;;;2.75;1.60;;;;;;;14.36;45.58;102050.31;5093909;28;20051;-65
2022/04/10 09:52:35;;;;;;;4.65;1.95;;;;;;;14.51;45.60;102052.00;5093567;28;20063;-66
2022/04/10 09:55:03;;;;;;;6.93;1.90;;;;;;;14.69;45.72;102041.75;5093610;28;20482;-65
2022/04/10 09:57:30;;;;;;;6.95;2.05;;;;;;;14.86;45.47;102049.59;5093491;28;20044;-66
2022/04/10 10:00:01;;;;;;;6.18;1.65;;;;;;;14.99;45.13;102044.19;5093655;28;20477;-65
2022/04/10 10:02:37;;;;;;;7.80;1.80;;;;;;;15.04;44.85;102046.56;5093532;28;20081;-66
2022/04/10 10:05:04;;;;;;;5.20;1.70;;;;;;;15.10;44.98;102052.41;5093658;28;20058;-65
2022/04/10 10:07:32;;;;;;;4.97;1.70;;;;;;;15.16;44.53;102041.16;5093338;28;20505;-65
2022/04/10 10:09:59;;;;;;;6.47;2.80;;;;;;;15.19;44.38;102040.06;5093555;28;20401;-66
2022/04/10 10:12:27;;;;;;;3.90;1.60;;;;;;;15.26;44.14;102038.66;5074875;28;20044;-66
2022/04/10 10:14:54;;;;;;;5.18;1.98;;;;;;;15.34;44.38;102038.09;5093601;28;20075;-65
2022/04/10 10:17:21;;;;;;;3.33;1.80;;;;;;;15.32;43.55;102048.16;5093399;28;20036;-66
2022/04/10 10:19:48;;;;;;;5.30;1.92;;;;;;;15.22;43.41;102040.72;5075980;28;20039;-65
2022/04/10 10:22:17;;;;;;;4.22;1.55;;;;;;;15.21;43.57;102043.53;5093279;28;20044;-65
2022/04/10 10:24:56;;;;;;;3.83;2.00;;;;;;;15.28;43.59;102036.69;5093135;28;20040;-65
2022/04/10 10:27:54;;;;;;;4.47;2.00;;;;;;;15.37;43.53;102025.22;5093037;28;20040;-65
2022/04/10 10:30:48;;;;;;;6.13;1.70;;;;;;;15.41;42.80;102031.25;5093559;28;20374;-66
2022/04/10 10:33:21;;;;;;;3.10;1.48;;;;;;;15.36;43.00;102030.72;5093131;28;20044;-66
2022/04/10 10:35:54;;;;;;;7.20;1.70;;;;;;;15.32;42.81;102037.34;5077728;28;20045;-66
2022/04/10 10:38:23;;;;;;;4.13;1.45;;;;;;;15.25;42.28;102036.91;5097628;28;20048;-65
2022/04/10 10:40:52;;;;;;;2.30;1.40;;;;;;;15.17;42.46;102034.75;5097375;28;20401;-65
2022/04/10 10:43:23;;;;;;;5.10;1.60;;;;;;;15.16;42.16;102027.63;5097190;28;20036;-66
2022/04/10 10:45:52;;;;;;;4.80;1.80;;;;;;;15.25;42.15;102028.81;5096826;28;20036;-65
2022/04/10 10:48:39;;;;;;;2.92;1.80;;;;;;;15.43;42.46;102032.03;5097397;28;20040;-65
2022/04/10 10:51:08;;;;;;;4.57;1.80;;;;;;;15.51;42.07;102030.47;5097424;28;20050;-65
2022/04/10 10:53:51;;;;;;;4.38;1.33;;;;;;;15.68;42.06;102028.44;5097240;28;20122;-65
2022/04/10 10:56:36;;;;;;;3.42;1.30;;;;;;;15.84;41.97;102029.91;5097106;28;20071;-65
2022/04/10 10:59:26;;;;;;;4.68;1.50;;;;;;;15.90;41.32;102031.28;5097072;28;20101;-66
2022/04/10 11:02:19;;;;;;;5.78;1.55;;;;;;;15.91;41.22;102026.72;5096637;28;20036;-65
2022/04/10 11:05:34;;;;;;;4.53;1.60;;;;;;;15.83;40.80;102030.00;5096715;28;20089;-65
2022/04/10 11:08:06;;;;;;;7.82;1.80;;;;;;;15.68;40.26;102029.31;5097061;28;20067;-65
2022/04/10 11:10:38;;;;;;;8.65;1.70;;;;;;;15.49;40.60;102029.72;5079033;28;20158;-66
2022/04/10 11:13:09;;;;;;;2.97;1.50;;;;;;;15.38;40.52;102028.78;5096749;28;20051;-65
2022/04/10 11:16:08;;;;;;;2.08;1.35;;;;;;;15.40;40.86;102021.41;5096895;28;20040;-65
2022/04/10 11:18:42;;;;;;;6.47;1.55;;;;;;;15.53;40.74;102015.00;5096216;28;20040;-65
2022/04/10 11:21:14;;;;;;;4.40;1.40;;;;;;;15.70;40.67;102021.94;5096521;28;20123;-65
2022/04/10 11:23:50;;;;;;;5.10;1.30;;;;;;;15.86;40.03;102014.41;5097089;28;20044;-65
2022/04/10 11:26:22;;;;;;;7.53;1.50;;;;;;;16.01;40.19;102009.66;5096003;28;20036;-67
2022/04/10 11:29:02;;;;;;;3.58;1.25;;;;;;;16.13;39.49;102008.75;5078236;28;20052;-66
2022/04/10 11:31:39;;;;;;;2.95;1.35;;;;;;;16.26;39.60;102011.38;5096501;28;20044;-67
2022/04/10 11:34:14;;;;;;;6.70;1.50;;;;;;;16.37;39.48;102008.75;5095873;28;20044;-67
2022/04/10 11:36:50;;;;;;;3.17;1.20;;;;;;;16.43;39.11;102016.41;5096478;28;20040;-67
2022/04/10 11:39:16;;;;;;;2.75;1.20;;;;;;;16.59;39.25;102023.34;5096559;28;20047;-67
2022/04/10 11:41:43;;;;;;;3.50;1.30;;;;;;;16.70;38.78;102009.84;5095897;28;20119;-66